Hamburg — V7OZ6 — position and weather

sailwx.info

Track history (hours):
 
Tides and Currents Weather Stations Pressure Air Temp Water Temp Dewpoint Dewpoint Depression Visibility Wind Speed Wind Dir Waves Ship Positions

Hamburg

Last reported at 2017-Nov-19 06:31 UTC. Time now 2017-Nov-24 14:46 UTC.
Position N 22°07' E 114°12'.

Length 293 m; draft 8.5 m.

Type: Ship. MMSI: 538006605.

Date/timePositionNaut miles runAvg speedWind from/ knotsBaromVisibWave heightAir tempDewpointWater temp
2017-Nov-19 06:31N 22°07' E 114°12'0 9.0
2017-Nov-19 06:30N 22°07' E 114°12'5 7.8
2017-Nov-19 05:54N 22°12' E 114°11'3 8.2
2017-Nov-19 05:30N 22°14' E 114°08'910.9
2017-Nov-19 04:41N 22°22' E 114°04'313.5
2017-Nov-19 04:30N 22°21' E 114°01'612.5
2017-Nov-19 04:00N 22°22' E 113°54'3 6.5
2017-Nov-19 03:30N 22°25' E 113°53'2 4.3
2017-Nov-19 03:00N 22°27' E 113°54'0 0.5
2017-Nov-19 02:29N 22°27' E 113°54'0 0.0
2017-Nov-19 01:59N 22°27' E 113°54'0 0.0
2017-Nov-19 01:29N 22°27' E 113°54'0 0.0
2017-Nov-19 00:59N 22°27' E 113°54'0 0.0
2017-Nov-19 00:29N 22°27' E 113°54'0 0.0
2017-Nov-18 23:59N 22°27' E 113°54'0 0.0
2017-Nov-18 23:29N 22°27' E 113°54'0 0.0
2017-Nov-18 22:59N 22°27' E 113°54'0 0.0
2017-Nov-18 22:29N 22°27' E 113°54'0 0.0
2017-Nov-18 21:59N 22°27' E 113°54'0 0.0
2017-Nov-18 21:29N 22°27' E 113°54'0 0.0
2017-Nov-18 20:59N 22°27' E 113°54'0 0.0
2017-Nov-18 20:29N 22°27' E 113°54'0 0.0
2017-Nov-18 19:59N 22°27' E 113°54'0 0.0
2017-Nov-18 19:29N 22°27' E 113°54'0 0.0
2017-Nov-18 18:53N 22°27' E 113°54'0 0.0
2017-Nov-18 18:29N 22°27' E 113°54'0 0.0
2017-Nov-18 17:59N 22°27' E 113°54'0 0.0
2017-Nov-18 17:29N 22°27' E 113°54'0 0.0
2017-Nov-18 16:59N 22°27' E 113°54'0 0.0
2017-Nov-18 16:29N 22°27' E 113°54'0 0.0
2017-Nov-18 15:59N 22°27' E 113°54'0 0.0
2017-Nov-18 15:29N 22°27' E 113°54'0 0.0
2017-Nov-18 14:59N 22°27' E 113°54'0 0.0
2017-Nov-18 14:29N 22°27' E 113°54'0 0.0
2017-Nov-18 13:59N 22°27' E 113°54'0 0.0
2017-Nov-18 13:29N 22°27' E 113°54'0 0.0
2017-Nov-18 12:59N 22°27' E 113°54'0 0.0
2017-Nov-18 12:29N 22°27' E 113°54'0 0.0
2017-Nov-18 11:59N 22°27' E 113°54'0 0.0
2017-Nov-18 11:29N 22°27' E 113°54'0 0.0
2017-Nov-18 10:59N 22°27' E 113°54'0 0.0
2017-Nov-18 10:29N 22°27' E 113°54'0 0.0
2017-Nov-18 09:59N 22°27' E 113°54'0 0.0
2017-Nov-18 09:29N 22°27' E 113°54'0 0.0
2017-Nov-18 08:59N 22°27' E 113°54'0 0.0
2017-Nov-18 08:29N 22°27' E 113°54'0 0.0
2017-Nov-18 07:59N 22°27' E 113°54'0 0.0
2017-Nov-18 07:29N 22°27' E 113°54'0 0.3
2017-Nov-18 07:00N 22°27' E 113°54'3 5.7
2017-Nov-18 06:30N 22°24' E 113°54'4 8.2
2017-Nov-18 06:00N 22°21' E 113°56'612.6
2017-Nov-18 05:30N 22°21' E 114°03'5 9.6
2017-Nov-18 05:00N 22°17' E 114°06'611.0
2017-Nov-18 04:30N 22°13' E 114°10'4 8.2
2017-Nov-18 04:00N 22°10' E 114°13'4 8.0
2017-Nov-18 03:27N 22°08' E 114°17'4 8.9
2017-Nov-18 03:00N 22°08' E 114°21'4 8.6
2017-Nov-18 02:30N 22°07' E 114°26'3 6.4
2017-Nov-18 02:00N 22°05' E 114°28'4 8.4
2017-Nov-18 01:30N 22°01' E 114°27'4 7.3
2017-Nov-18 01:00N 21°58' E 114°25'510.6
2017-Nov-18 00:30N 21°52' E 114°24'  
2017-Nov-14 23:58N 01°24' E 104°28'1918.2
2017-Nov-14 22:57N 01°16' E 104°11'817.9
2017-Nov-14 22:30N 01°15' E 104°03'714.9
2017-Nov-14 22:00N 01°14' E 103°56'611.4
2017-Nov-14 21:30N 01°11' E 103°51'3 5.8
2017-Nov-14 21:00N 01°13' E 103°48'3 6.0
2017-Nov-14 20:31N 01°16' E 103°48'0 0.6
2017-Nov-14 19:55N 01°16' E 103°48'0 0.0
2017-Nov-14 19:30N 01°16' E 103°48'0 0.0
2017-Nov-14 19:00N 01°16' E 103°48'0 0.0
2017-Nov-14 18:30N 01°16' E 103°48'0 0.0
2017-Nov-14 18:00N 01°16' E 103°48'0 0.0
2017-Nov-14 17:30N 01°16' E 103°48'0 0.0
2017-Nov-14 17:00N 01°16' E 103°48'0 0.0
2017-Nov-14 16:30N 01°16' E 103°48'0 0.0
2017-Nov-14 16:01N 01°16' E 103°48'0 0.0
2017-Nov-14 15:30N 01°16' E 103°48'0 0.0
2017-Nov-14 15:01N 01°16' E 103°48'0 0.0
2017-Nov-14 14:30N 01°16' E 103°48'0 0.0
2017-Nov-14 14:01N 01°16' E 103°48'0 0.0
2017-Nov-14 13:30N 01°16' E 103°48'0 0.0
2017-Nov-14 13:00N 01°16' E 103°48'0 0.0
2017-Nov-14 12:30N 01°16' E 103°48'0 0.0
2017-Nov-14 12:00N 01°16' E 103°48'0 0.0
2017-Nov-14 11:30N 01°16' E 103°48'0 0.0
2017-Nov-14 11:01N 01°16' E 103°48'0 0.0
2017-Nov-14 10:30N 01°16' E 103°48'0 0.0
2017-Nov-14 10:01N 01°16' E 103°48'0 0.0
2017-Nov-14 09:30N 01°16' E 103°48'0 0.0
2017-Nov-14 09:00N 01°16' E 103°48'0 0.0
2017-Nov-14 08:30N 01°16' E 103°48'0 0.0
2017-Nov-14 08:01N 01°16' E 103°48'0 0.0
2017-Nov-14 07:30N 01°16' E 103°48'0 0.1
2017-Nov-14 07:01N 01°16' E 103°47'0 0.1
2017-Nov-14 06:30N 01°16' E 103°48'0 0.0
2017-Nov-14 06:00N 01°16' E 103°48'0 0.0
2017-Nov-14 05:30N 01°16' E 103°48'0 0.0
2017-Nov-14 05:01N 01°16' E 103°48'0 0.0
2017-Nov-14 04:30N 01°16' E 103°48'0 0.0
2017-Nov-14 04:00N 01°16' E 103°48'0 0.0
2017-Nov-14 03:30N 01°16' E 103°48'0 0.0
2017-Nov-14 03:01N 01°16' E 103°48'0 0.0
2017-Nov-14 02:30N 01°16' E 103°48'0 0.0
2017-Nov-14 02:00N 01°16' E 103°48'0 0.0
2017-Nov-14 01:30N 01°16' E 103°48'0 0.0
2017-Nov-14 01:00N 01°16' E 103°48'0 0.0
2017-Nov-14 00:30N 01°16' E 103°48'0 0.0
2017-Nov-14 00:01N 01°16' E 103°48'0 0.1
2017-Nov-13 23:30N 01°16' E 103°48'1 2.3
2017-Nov-13 23:00N 01°15' E 103°47'4 7.2
2017-Nov-13 22:30N 01°14' E 103°43'4 8.6
2017-Nov-13 22:00N 01°12' E 103°40'  
Track history (hours):
 
Tides and Currents Weather Stations Pressure Air Temp Water Temp Dewpoint Dewpoint Depression Visibility Wind Speed Wind Dir Waves Ship Positions

Hamburg

Last reported at 2017-Nov-19 06:31 UTC. Time now 2017-Nov-24 14:46 UTC.
Position N 22°07' E 114°12'.

Length 293 m; draft 8.5 m.

Type: Ship. MMSI: 538006605.

Date/timePositionNaut miles runAvg speedWind from/ knotsBaromVisibWave heightAir tempDewpointWater temp
2017-Nov-19 06:31N 22°07' E 114°12'0 9.0
2017-Nov-19 06:30N 22°07' E 114°12'5 7.8
2017-Nov-19 05:54N 22°12' E 114°11'3 8.2
2017-Nov-19 05:30N 22°14' E 114°08'910.9
2017-Nov-19 04:41N 22°22' E 114°04'313.5
2017-Nov-19 04:30N 22°21' E 114°01'612.5
2017-Nov-19 04:00N 22°22' E 113°54'3 6.5
2017-Nov-19 03:30N 22°25' E 113°53'2 4.3
2017-Nov-19 03:00N 22°27' E 113°54'0 0.5
2017-Nov-19 02:29N 22°27' E 113°54'0 0.0
2017-Nov-19 01:59N 22°27' E 113°54'0 0.0
2017-Nov-19 01:29N 22°27' E 113°54'0 0.0
2017-Nov-19 00:59N 22°27' E 113°54'0 0.0
2017-Nov-19 00:29N 22°27' E 113°54'0 0.0
2017-Nov-18 23:59N 22°27' E 113°54'0 0.0
2017-Nov-18 23:29N 22°27' E 113°54'0 0.0
2017-Nov-18 22:59N 22°27' E 113°54'0 0.0
2017-Nov-18 22:29N 22°27' E 113°54'0 0.0
2017-Nov-18 21:59N 22°27' E 113°54'0 0.0
2017-Nov-18 21:29N 22°27' E 113°54'0 0.0
2017-Nov-18 20:59N 22°27' E 113°54'0 0.0
2017-Nov-18 20:29N 22°27' E 113°54'0 0.0
2017-Nov-18 19:59N 22°27' E 113°54'0 0.0
2017-Nov-18 19:29N 22°27' E 113°54'0 0.0
2017-Nov-18 18:53N 22°27' E 113°54'0 0.0
2017-Nov-18 18:29N 22°27' E 113°54'0 0.0
2017-Nov-18 17:59N 22°27' E 113°54'0 0.0
2017-Nov-18 17:29N 22°27' E 113°54'0 0.0
2017-Nov-18 16:59N 22°27' E 113°54'0 0.0
2017-Nov-18 16:29N 22°27' E 113°54'0 0.0
2017-Nov-18 15:59N 22°27' E 113°54'0 0.0
2017-Nov-18 15:29N 22°27' E 113°54'0 0.0
2017-Nov-18 14:59N 22°27' E 113°54'0 0.0
2017-Nov-18 14:29N 22°27' E 113°54'0 0.0
2017-Nov-18 13:59N 22°27' E 113°54'0 0.0
2017-Nov-18 13:29N 22°27' E 113°54'0 0.0
2017-Nov-18 12:59N 22°27' E 113°54'0 0.0
2017-Nov-18 12:29N 22°27' E 113°54'0 0.0
2017-Nov-18 11:59N 22°27' E 113°54'0 0.0
2017-Nov-18 11:29N 22°27' E 113°54'0 0.0
2017-Nov-18 10:59N 22°27' E 113°54'0 0.0
2017-Nov-18 10:29N 22°27' E 113°54'0 0.0
2017-Nov-18 09:59N 22°27' E 113°54'0 0.0
2017-Nov-18 09:29N 22°27' E 113°54'0 0.0
2017-Nov-18 08:59N 22°27' E 113°54'0 0.0
2017-Nov-18 08:29N 22°27' E 113°54'0 0.0
2017-Nov-18 07:59N 22°27' E 113°54'0 0.0
2017-Nov-18 07:29N 22°27' E 113°54'0 0.3
2017-Nov-18 07:00N 22°27' E 113°54'3 5.7
2017-Nov-18 06:30N 22°24' E 113°54'4 8.2
2017-Nov-18 06:00N 22°21' E 113°56'612.6
2017-Nov-18 05:30N 22°21' E 114°03'5 9.6
2017-Nov-18 05:00N 22°17' E 114°06'611.0
2017-Nov-18 04:30N 22°13' E 114°10'4 8.2
2017-Nov-18 04:00N 22°10' E 114°13'4 8.0
2017-Nov-18 03:27N 22°08' E 114°17'4 8.9
2017-Nov-18 03:00N 22°08' E 114°21'4 8.6
2017-Nov-18 02:30N 22°07' E 114°26'3 6.4
2017-Nov-18 02:00N 22°05' E 114°28'4 8.4
2017-Nov-18 01:30N 22°01' E 114°27'4 7.3
2017-Nov-18 01:00N 21°58' E 114°25'510.6
2017-Nov-18 00:30N 21°52' E 114°24'  
2017-Nov-14 23:58N 01°24' E 104°28'1918.2
2017-Nov-14 22:57N 01°16' E 104°11'817.9
2017-Nov-14 22:30N 01°15' E 104°03'714.9
2017-Nov-14 22:00N 01°14' E 103°56'611.4
2017-Nov-14 21:30N 01°11' E 103°51'3 5.8
2017-Nov-14 21:00N 01°13' E 103°48'3 6.0
2017-Nov-14 20:31N 01°16' E 103°48'0 0.6
2017-Nov-14 19:55N 01°16' E 103°48'0 0.0
2017-Nov-14 19:30N 01°16' E 103°48'0 0.0
2017-Nov-14 19:00N 01°16' E 103°48'0 0.0
2017-Nov-14 18:30N 01°16' E 103°48'0 0.0
2017-Nov-14 18:00N 01°16' E 103°48'0 0.0
2017-Nov-14 17:30N 01°16' E 103°48'0 0.0
2017-Nov-14 17:00N 01°16' E 103°48'0 0.0
2017-Nov-14 16:30N 01°16' E 103°48'0 0.0
2017-Nov-14 16:01N 01°16' E 103°48'0 0.0
2017-Nov-14 15:30N 01°16' E 103°48'0 0.0
2017-Nov-14 15:01N 01°16' E 103°48'0 0.0
2017-Nov-14 14:30N 01°16' E 103°48'0 0.0
2017-Nov-14 14:01N 01°16' E 103°48'0 0.0
2017-Nov-14 13:30N 01°16' E 103°48'0 0.0
2017-Nov-14 13:00N 01°16' E 103°48'0 0.0
2017-Nov-14 12:30N 01°16' E 103°48'0 0.0
2017-Nov-14 12:00N 01°16' E 103°48'0 0.0
2017-Nov-14 11:30N 01°16' E 103°48'0 0.0
2017-Nov-14 11:01N 01°16' E 103°48'0 0.0
2017-Nov-14 10:30N 01°16' E 103°48'0 0.0
2017-Nov-14 10:01N 01°16' E 103°48'0 0.0
2017-Nov-14 09:30N 01°16' E 103°48'0 0.0
2017-Nov-14 09:00N 01°16' E 103°48'0 0.0
2017-Nov-14 08:30N 01°16' E 103°48'0 0.0
2017-Nov-14 08:01N 01°16' E 103°48'0 0.0
2017-Nov-14 07:30N 01°16' E 103°48'0 0.1
2017-Nov-14 07:01N 01°16' E 103°47'0 0.1
2017-Nov-14 06:30N 01°16' E 103°48'0 0.0
2017-Nov-14 06:00N 01°16' E 103°48'0 0.0
2017-Nov-14 05:30N 01°16' E 103°48'0 0.0
2017-Nov-14 05:01N 01°16' E 103°48'0 0.0
2017-Nov-14 04:30N 01°16' E 103°48'0 0.0
2017-Nov-14 04:00N 01°16' E 103°48'0 0.0
2017-Nov-14 03:30N 01°16' E 103°48'0 0.0
2017-Nov-14 03:01N 01°16' E 103°48'0 0.0
2017-Nov-14 02:30N 01°16' E 103°48'0 0.0
2017-Nov-14 02:00N 01°16' E 103°48'0 0.0
2017-Nov-14 01:30N 01°16' E 103°48'0 0.0
2017-Nov-14 01:00N 01°16' E 103°48'0 0.0
2017-Nov-14 00:30N 01°16' E 103°48'0 0.0
2017-Nov-14 00:01N 01°16' E 103°48'0 0.1
2017-Nov-13 23:30N 01°16' E 103°48'1 2.3
2017-Nov-13 23:00N 01°15' E 103°47'4 7.2
2017-Nov-13 22:30N 01°14' E 103°43'4 8.6
2017-Nov-13 22:00N 01°12' E 103°40'  

Dump ship's entire track history